createdAt,value
2019-05-01T00:01:05.935Z,9.90
2019-05-01T00:04:00.781Z,9.80
2019-05-01T00:06:36.298Z,9.80
2019-05-01T00:09:07.434Z,9.80
2019-05-01T00:11:37.107Z,9.70
2019-05-01T00:14:07.198Z,9.70
2019-05-01T00:16:37.991Z,9.60
2019-05-01T00:19:07.615Z,9.60
2019-05-01T00:21:37.202Z,9.70
2019-05-01T00:24:08.310Z,9.60
2019-05-01T00:26:38.047Z,9.60
2019-05-01T00:29:07.699Z,9.50
2019-05-01T00:31:38.442Z,9.50
2019-05-01T00:34:08.055Z,9.60
2019-05-01T00:36:37.786Z,9.50
2019-05-01T00:39:09.096Z,9.50
2019-05-01T00:41:39.136Z,9.50
2019-05-01T00:44:08.698Z,9.40
2019-05-01T00:46:38.498Z,9.40
2019-05-01T00:49:08.923Z,9.30
2019-05-01T00:51:38.620Z,9.30
2019-05-01T00:54:09.381Z,9.30
2019-05-01T00:56:47.027Z,9.30
2019-05-01T00:59:44.571Z,9.30
2019-05-01T01:02:38.739Z,9.30
2019-05-01T01:05:08.423Z,9.30
2019-05-01T01:07:38.122Z,9.30
2019-05-01T01:10:08.214Z,9.20
2019-05-01T01:12:38.808Z,9.10
2019-05-01T01:15:10.751Z,9.20
2019-05-01T01:17:40.354Z,9.20
2019-05-01T01:20:11.172Z,9.20
2019-05-01T01:22:40.719Z,9.20
2019-05-01T01:25:10.383Z,9.20
2019-05-01T01:27:40.079Z,9.10
2019-05-01T01:30:09.809Z,9.20
2019-05-01T01:32:39.383Z,9.20
2019-05-01T01:35:08.965Z,9.20
2019-05-01T01:37:38.569Z,9.20
2019-05-01T01:40:08.235Z,9.30
2019-05-01T01:42:38.564Z,9.30
2019-05-01T01:45:15.446Z,9.10
2019-05-01T01:48:02.744Z,9.10
2019-05-01T01:50:33.510Z,9.10
2019-05-01T01:53:03.106Z,9.20
2019-05-01T01:55:32.679Z,9.20
2019-05-01T01:58:03.344Z,9.10
2019-05-01T02:00:44.591Z,9.00
2019-05-01T02:03:14.220Z,9.00
2019-05-01T02:05:44.600Z,9.00
2019-05-01T02:08:14.347Z,9.00
2019-05-01T02:10:43.958Z,8.90
2019-05-01T02:13:13.670Z,9.00
2019-05-01T02:15:43.271Z,9.00
2019-05-01T02:18:12.859Z,8.90
2019-05-01T02:20:44.471Z,8.90
2019-05-01T02:23:14.022Z,8.90
2019-05-01T02:25:44.461Z,8.90
2019-05-01T02:28:29.412Z,8.90
2019-05-01T02:31:27.621Z,8.90
2019-05-01T02:33:45.980Z,8.90
2019-05-01T02:36:15.574Z,8.90
2019-05-01T02:38:45.163Z,8.70
2019-05-01T02:41:14.765Z,8.70
2019-05-01T02:43:44.503Z,8.70
2019-05-01T02:46:14.090Z,8.70
2019-05-01T02:48:46.413Z,8.70
2019-05-01T02:51:16.144Z,8.70
2019-05-01T02:53:45.752Z,8.70
2019-05-01T02:56:21.479Z,8.60
2019-05-01T02:58:51.485Z,8.50
2019-05-01T03:01:21.055Z,8.30
2019-05-01T03:03:50.650Z,8.30
2019-05-01T03:06:20.675Z,8.30
2019-05-01T03:08:50.635Z,8.40
2019-05-01T03:11:20.344Z,8.40
2019-05-01T03:13:50.063Z,8.50
2019-05-01T03:16:19.643Z,8.40
2019-05-01T03:18:52.376Z,8.40
2019-05-01T03:21:44.760Z,8.30
2019-05-01T03:24:18.368Z,8.30
2019-05-01T03:26:48.068Z,8.10
2019-05-01T03:29:17.670Z,8.10
2019-05-01T03:32:14.383Z,8.20
2019-05-01T03:34:18.659Z,8.20
2019-05-01T03:36:48.330Z,8.10
2019-05-01T03:39:17.956Z,8.00
2019-05-01T03:41:47.733Z,8.10
2019-05-01T03:44:17.318Z,8.00
2019-05-01T03:46:46.985Z,8.00
2019-05-01T03:49:16.552Z,7.90
2019-05-01T03:51:46.154Z,7.90
2019-05-01T03:54:15.783Z,7.90
2019-05-01T03:56:45.438Z,7.80
2019-05-01T03:59:15.115Z,7.80
2019-05-01T04:02:00.795Z,8.00
2019-05-01T04:04:31.057Z,7.80
2019-05-01T04:07:00.637Z,7.90
2019-05-01T04:09:30.246Z,7.80
2019-05-01T04:12:00.304Z,7.90
2019-05-01T04:14:29.953Z,7.80
2019-05-01T04:17:08.164Z,7.80
2019-05-01T04:19:37.876Z,7.80
2019-05-01T04:22:12.396Z,7.90
2019-05-01T04:24:43.375Z,7.80
2019-05-01T04:27:18.069Z,7.80
2019-05-01T04:29:54.128Z,7.80
2019-05-01T04:32:29.655Z,7.80
2019-05-01T04:35:23.549Z,7.70
2019-05-01T04:37:54.636Z,7.80
2019-05-01T04:40:24.299Z,7.70
2019-05-01T04:42:53.930Z,7.70
2019-05-01T04:45:23.495Z,7.70
2019-05-01T04:47:53.073Z,7.80
2019-05-01T04:50:22.681Z,7.80
2019-05-01T04:52:52.269Z,7.90
2019-05-01T04:55:23.611Z,8.00
2019-05-01T04:57:53.186Z,8.00
2019-05-01T05:00:22.796Z,8.00
2019-05-01T05:03:05.035Z,8.00
2019-05-01T05:05:34.179Z,8.00
2019-05-01T05:08:03.822Z,8.00
2019-05-01T05:10:33.444Z,8.10
2019-05-01T05:13:31.388Z,8.10
2019-05-01T05:16:29.236Z,8.00
2019-05-01T05:18:58.846Z,8.00
2019-05-01T05:21:28.435Z,8.10
2019-05-01T05:23:58.100Z,8.00
2019-05-01T05:26:27.935Z,8.10
2019-05-01T05:28:57.555Z,8.20
2019-05-01T05:31:28.250Z,8.20
2019-05-01T05:34:02.878Z,8.20
2019-05-01T05:36:32.627Z,8.20
2019-05-01T05:39:10.665Z,8.20
2019-05-01T05:41:40.260Z,8.30
2019-05-01T05:44:09.963Z,8.40
2019-05-01T05:46:39.778Z,8.40
2019-05-01T05:49:09.449Z,8.40
2019-05-01T05:51:44.814Z,8.40
2019-05-01T05:54:33.700Z,8.60
2019-05-01T05:57:10.853Z,8.60
2019-05-01T05:59:43.073Z,8.60
2019-05-01T06:02:22.198Z,8.70
2019-05-01T06:05:15.999Z,8.80
2019-05-01T06:08:05.581Z,8.80
2019-05-01T06:10:44.511Z,8.90
2019-05-01T06:13:33.542Z,9.00
2019-05-01T06:16:16.247Z,9.00
2019-05-01T06:18:56.750Z,9.00
2019-05-01T06:21:34.722Z,9.00
2019-05-01T06:24:08.432Z,9.10
2019-05-01T06:26:39.501Z,9.20
2019-05-01T06:29:09.315Z,9.20
2019-05-01T06:31:39.637Z,9.20
2019-05-01T06:34:09.490Z,9.30
2019-05-01T06:36:39.152Z,9.40
2019-05-01T06:39:11.823Z,9.50
2019-05-01T06:41:44.386Z,9.50
2019-05-01T06:44:25.164Z,9.60
2019-05-01T06:47:14.364Z,9.70
2019-05-01T06:50:12.089Z,9.70
2019-05-01T06:52:41.907Z,9.80
2019-05-01T06:55:11.654Z,9.90
2019-05-01T06:57:43.863Z,10.00
2019-05-01T07:00:15.888Z,10.10
2019-05-01T07:02:46.049Z,10.10
2019-05-01T07:05:16.511Z,10.10
2019-05-01T07:07:48.240Z,10.10
2019-05-01T07:10:29.658Z,10.20
2019-05-01T07:12:50.384Z,10.30
2019-05-01T07:15:21.960Z,9.90
2019-05-01T07:18:01.881Z,10.50
2019-05-01T07:21:04.691Z,10.60
2019-05-01T07:23:43.314Z,10.60
2019-05-01T07:26:13.687Z,10.70
2019-05-01T07:28:45.512Z,10.80
2019-05-01T07:31:16.023Z,10.80
2019-05-01T07:34:16.071Z,10.90
2019-05-01T07:36:37.964Z,10.90
2019-05-01T07:39:09.858Z,11.00
2019-05-01T07:41:40.242Z,11.10
2019-05-01T07:44:33.844Z,11.10
2019-05-01T07:47:20.618Z,11.10
2019-05-01T07:50:03.662Z,11.20
2019-05-01T07:52:34.683Z,11.30
2019-05-01T07:55:04.341Z,11.40
2019-05-01T07:57:39.186Z,11.40
2019-05-01T08:00:09.532Z,11.50
2019-05-01T08:02:39.467Z,11.60
2019-05-01T08:05:11.597Z,11.60
2019-05-01T08:07:41.496Z,11.70
2019-05-01T08:10:11.364Z,11.80
2019-05-01T08:12:41.639Z,11.90
2019-05-01T08:15:12.791Z,12.00
2019-05-01T08:17:44.463Z,12.10
2019-05-01T08:20:23.155Z,12.10
2019-05-01T08:22:53.132Z,12.20
2019-05-01T08:25:22.793Z,12.30
2019-05-01T08:28:11.750Z,12.30
2019-05-01T08:30:54.854Z,12.40
2019-05-01T08:33:49.738Z,12.50
2019-05-01T08:36:19.068Z,12.60
2019-05-01T08:38:50.018Z,12.60
2019-05-01T08:41:19.122Z,12.70
2019-05-01T08:43:53.910Z,12.80
2019-05-01T08:46:50.969Z,12.80
2019-05-01T08:49:28.135Z,12.80
2019-05-01T08:51:58.696Z,12.90
2019-05-01T08:54:33.448Z,13.00
2019-05-01T08:57:01.314Z,13.10
2019-05-01T08:59:31.710Z,13.10
2019-05-01T09:02:09.499Z,13.20
2019-05-01T09:04:33.296Z,13.30
2019-05-01T09:07:03.524Z,13.30
2019-05-01T09:09:39.747Z,13.20
2019-05-01T09:12:07.014Z,13.30
2019-05-01T09:14:38.088Z,13.30
2019-05-01T09:17:07.827Z,13.40
2019-05-01T09:19:37.871Z,13.40
2019-05-01T09:22:07.597Z,13.50
2019-05-01T09:24:37.376Z,13.50
2019-05-01T09:27:18.729Z,13.60
2019-05-01T09:29:51.836Z,13.70
2019-05-01T09:32:22.596Z,13.80
2019-05-01T09:34:52.503Z,13.90
2019-05-01T09:37:22.223Z,13.90
2019-05-01T09:39:52.178Z,14.00
2019-05-01T09:42:23.852Z,14.20
2019-05-01T09:44:53.328Z,14.20
2019-05-01T09:47:24.978Z,14.30
2019-05-01T09:49:55.968Z,14.30
2019-05-01T09:52:43.473Z,14.30
2019-05-01T09:55:26.964Z,14.30
2019-05-01T09:57:57.005Z,14.40
2019-05-01T10:00:30.246Z,14.50
2019-05-01T10:02:59.923Z,14.60
2019-05-01T10:05:29.524Z,14.60
2019-05-01T10:08:00.054Z,14.60
2019-05-01T10:10:31.574Z,14.70
2019-05-01T10:13:01.161Z,14.70
2019-05-01T10:15:30.745Z,14.80
2019-05-01T10:18:00.333Z,14.80
2019-05-01T10:20:34.018Z,14.90
2019-05-01T10:23:07.883Z,14.90
2019-05-01T10:25:38.359Z,14.90
2019-05-01T10:28:12.918Z,14.90
2019-05-01T10:30:52.647Z,15.00
2019-05-01T10:33:24.313Z,15.00
2019-05-01T10:36:18.331Z,15.00
2019-05-01T10:38:44.902Z,15.10
2019-05-01T10:41:15.100Z,15.10
2019-05-01T10:43:44.812Z,15.20
2019-05-01T10:46:14.429Z,15.20
2019-05-01T10:48:44.182Z,15.20
2019-05-01T10:51:19.401Z,15.10
2019-05-01T10:53:49.524Z,15.10
2019-05-01T10:56:19.278Z,15.10
2019-05-01T10:58:48.909Z,15.10
2019-05-01T11:01:24.217Z,15.20
2019-05-01T11:03:54.095Z,15.20
2019-05-01T11:06:24.901Z,15.30
2019-05-01T11:08:54.495Z,15.40
2019-05-01T11:11:24.509Z,15.40
2019-05-01T11:13:56.631Z,15.50
2019-05-01T11:16:27.087Z,15.60
2019-05-01T11:18:57.329Z,15.70
2019-05-01T11:21:27.762Z,15.90
2019-05-01T11:23:58.244Z,15.80
2019-05-01T11:26:28.097Z,16.00
2019-05-01T11:28:58.438Z,16.00
2019-05-01T11:31:35.855Z,15.90
2019-05-01T11:34:29.092Z,16.00
2019-05-01T11:37:17.892Z,16.10
2019-05-01T11:40:06.676Z,16.30
2019-05-01T11:42:37.377Z,16.50
2019-05-01T11:45:10.137Z,16.70
2019-05-01T11:47:40.533Z,16.70
2019-05-01T11:50:10.872Z,16.80
2019-05-01T11:52:41.077Z,17.00
2019-05-01T11:58:05.255Z,17.30
2019-05-01T12:00:37.613Z,17.40
2019-05-01T12:03:07.785Z,17.60
2019-05-01T12:05:38.036Z,17.60
2019-05-01T12:08:08.816Z,17.80
2019-05-01T12:10:38.433Z,18.00
2019-05-01T12:13:09.256Z,18.10
2019-05-01T12:15:40.022Z,18.30
2019-05-01T12:18:21.259Z,18.50
2019-05-01T12:20:52.930Z,18.70
2019-05-01T12:23:23.414Z,18.80
2019-05-01T12:25:55.118Z,18.90
2019-05-01T12:28:26.325Z,18.90
2019-05-01T12:30:57.812Z,18.90
2019-05-01T12:33:30.293Z,19.10
2019-05-01T12:36:36.598Z,19.30
2019-05-01T12:39:15.542Z,19.50
2019-05-01T12:41:51.699Z,19.70
2019-05-01T12:44:22.553Z,19.80
2019-05-01T12:47:18.469Z,20.10
2019-05-01T12:49:50.205Z,20.30
2019-05-01T12:52:50.120Z,20.60
2019-05-01T12:55:30.588Z,20.70
2019-05-01T12:58:01.502Z,20.90
2019-05-01T13:00:42.749Z,20.90
2019-05-01T13:03:13.032Z,20.80
2019-05-01T13:05:43.375Z,21.00
2019-05-01T13:08:21.361Z,21.00
2019-05-01T13:11:04.914Z,21.10
2019-05-01T13:13:34.503Z,21.40
2019-05-01T13:16:04.257Z,21.60
2019-05-01T13:18:37.075Z,21.80
2019-05-01T13:21:06.938Z,22.00
2019-05-01T13:23:38.984Z,22.20
2019-05-01T13:26:15.589Z,22.50
2019-05-01T13:29:10.417Z,22.70
2019-05-01T13:31:53.173Z,22.90
2019-05-01T13:34:22.831Z,23.20
2019-05-01T13:37:02.754Z,23.20
2019-05-01T13:39:24.656Z,23.00
2019-05-01T13:41:54.492Z,23.10
2019-05-01T13:44:24.073Z,23.20
2019-05-01T13:46:53.759Z,23.40
2019-05-01T13:49:23.534Z,23.60
2019-05-01T13:51:53.362Z,23.70
2019-05-01T13:54:23.115Z,23.80
2019-05-01T13:56:53.956Z,23.90
2019-05-01T13:59:23.671Z,23.90
2019-05-01T14:01:54.497Z,24.00
2019-05-01T14:04:24.089Z,24.00
2019-05-01T14:06:53.692Z,24.10
2019-05-01T14:09:32.425Z,24.10
2019-05-01T14:12:10.436Z,24.10
2019-05-01T14:14:41.016Z,24.10
2019-05-01T14:17:10.048Z,24.20
2019-05-01T14:19:41.483Z,24.10
2019-05-01T14:22:28.756Z,24.10
2019-05-01T14:24:59.382Z,24.00
2019-05-01T14:27:28.158Z,23.90
2019-05-01T14:29:57.845Z,24.00
2019-05-01T14:32:27.566Z,24.10
2019-05-01T14:34:57.205Z,24.10
2019-05-01T14:37:29.822Z,24.10
2019-05-01T14:39:59.516Z,24.10
2019-05-01T14:42:29.115Z,24.00
2019-05-01T14:44:58.826Z,24.00
2019-05-01T14:47:28.494Z,24.10
2019-05-01T14:49:58.120Z,24.20
2019-05-01T14:52:27.956Z,24.20
2019-05-01T14:54:57.973Z,24.20
2019-05-01T14:57:27.767Z,24.40
2019-05-01T14:59:57.569Z,24.50
2019-05-01T15:02:28.203Z,24.60
2019-05-01T15:04:57.944Z,24.70
2019-05-01T15:07:28.479Z,24.90
2019-05-01T15:09:58.225Z,24.90
2019-05-01T15:12:27.938Z,25.00
2019-05-01T15:15:04.235Z,25.00
2019-05-01T15:17:43.855Z,25.10
2019-05-01T15:20:15.245Z,25.10
2019-05-01T15:22:44.908Z,25.10
2019-05-01T15:25:14.659Z,25.20
2019-05-01T15:27:44.327Z,25.20
2019-05-01T15:30:17.549Z,25.20
2019-05-01T15:32:47.435Z,25.20
2019-05-01T15:35:17.091Z,25.20
2019-05-01T15:37:56.623Z,25.30
2019-05-01T15:40:26.016Z,25.20
2019-05-01T15:42:59.837Z,25.00
2019-05-01T15:45:29.682Z,24.70
2019-05-01T15:47:59.336Z,24.50
2019-05-01T15:50:28.964Z,24.50
2019-05-01T15:52:58.708Z,24.30
2019-05-01T15:55:28.283Z,24.30
2019-05-01T15:57:57.949Z,24.40
2019-05-01T16:00:27.871Z,24.40
2019-05-01T16:02:57.495Z,24.50
2019-05-01T16:05:27.296Z,24.50
2019-05-01T16:08:08.945Z,24.50
2019-05-01T16:10:33.327Z,24.40
2019-05-01T16:13:03.813Z,24.40
2019-05-01T16:15:34.875Z,24.30
2019-05-01T16:18:06.149Z,24.20
2019-05-01T16:20:35.781Z,24.10
2019-05-01T16:23:06.025Z,24.00
2019-05-01T16:25:35.711Z,23.90
2019-05-01T16:28:05.319Z,24.00
2019-05-01T16:30:35.118Z,24.00
2019-05-01T16:33:05.391Z,24.10
2019-05-01T16:35:40.182Z,24.20
2019-05-01T16:38:22.750Z,24.20
2019-05-01T16:41:01.822Z,24.30
2019-05-01T16:43:31.532Z,24.40
2019-05-01T16:46:01.307Z,24.50
2019-05-01T16:48:30.853Z,24.50
2019-05-01T16:51:00.560Z,24.60
2019-05-01T16:53:30.233Z,24.70
2019-05-01T16:55:59.849Z,24.80
2019-05-01T16:58:30.039Z,24.60
2019-05-01T17:01:03.106Z,24.40
2019-05-01T17:03:54.928Z,24.20
2019-05-01T17:06:34.059Z,24.20
2019-05-01T17:09:21.797Z,24.10
2019-05-01T17:11:51.493Z,24.20
2019-05-01T17:14:21.591Z,24.20
2019-05-01T17:16:51.244Z,24.20
2019-05-01T17:19:20.939Z,24.10
2019-05-01T17:21:50.597Z,24.10
2019-05-01T17:24:20.237Z,24.10
2019-05-01T17:26:49.861Z,24.10
2019-05-01T17:29:19.630Z,24.10
2019-05-01T17:31:49.239Z,24.10
2019-05-01T17:34:18.902Z,23.90
2019-05-01T17:36:48.544Z,23.90
2019-05-01T17:39:18.578Z,23.80
2019-05-01T17:41:48.184Z,23.70
2019-05-01T17:44:20.137Z,23.60
2019-05-01T17:46:50.283Z,23.50
2019-05-01T17:49:19.876Z,23.10
2019-05-01T17:51:49.471Z,22.70
2019-05-01T17:54:19.143Z,22.40
2019-05-01T17:56:53.872Z,22.20
2019-05-01T17:59:19.994Z,21.90
2019-05-01T18:02:10.186Z,21.70
2019-05-01T18:04:55.022Z,21.60
2019-05-01T18:07:28.882Z,21.30
2019-05-01T18:09:58.157Z,21.10
2019-05-01T18:12:30.131Z,20.90
2019-05-01T18:14:59.999Z,20.80
2019-05-01T18:17:30.800Z,20.60
2019-05-01T18:20:00.507Z,20.50
2019-05-01T18:22:41.036Z,20.30
2019-05-01T18:25:38.715Z,20.20
2019-05-01T18:28:30.028Z,20.10
2019-05-01T18:30:59.618Z,20.00
2019-05-01T18:33:29.859Z,19.80
2019-05-01T18:35:59.858Z,19.60
2019-05-01T18:38:57.632Z,19.60
2019-05-01T18:41:41.904Z,19.50
2019-05-01T18:44:13.635Z,19.40
2019-05-01T18:46:43.340Z,19.40
2019-05-01T18:49:14.010Z,19.30
2019-05-01T18:51:43.654Z,19.10
2019-05-01T18:54:13.679Z,19.00
2019-05-01T18:56:43.343Z,18.90
2019-05-01T18:59:13.116Z,18.90
2019-05-01T19:01:43.790Z,18.80
2019-05-01T19:04:18.340Z,18.80
2019-05-01T19:06:45.961Z,18.70
2019-05-01T19:09:28.782Z,18.60
2019-05-01T19:11:47.124Z,18.60
2019-05-01T19:14:16.801Z,18.40
2019-05-01T19:16:48.406Z,18.40
2019-05-01T19:19:18.077Z,18.30
2019-05-01T19:21:48.428Z,18.30
2019-05-01T19:24:19.629Z,18.20
2019-05-01T19:26:49.230Z,18.10
2019-05-01T19:29:18.844Z,18.00
2019-05-01T19:31:48.484Z,17.90
2019-05-01T19:38:07.909Z,17.80
2019-05-01T19:40:39.190Z,17.70
2019-05-01T19:43:08.865Z,17.60
2019-05-01T19:45:38.640Z,17.60
2019-05-01T19:48:08.817Z,17.50
2019-05-01T19:50:48.040Z,17.50
2019-05-01T19:53:22.366Z,17.40
2019-05-01T19:55:56.031Z,17.30
2019-05-01T19:58:27.579Z,17.20
2019-05-01T20:01:04.845Z,17.10
2019-05-01T20:03:38.442Z,17.00
2019-05-01T20:06:11.207Z,17.00
2019-05-01T20:08:42.123Z,16.90
2019-05-01T20:11:11.181Z,16.90
2019-05-01T20:13:41.849Z,16.70
2019-05-01T20:16:12.433Z,16.70
2019-05-01T20:18:42.005Z,16.50
2019-05-01T20:21:13.639Z,16.50
2019-05-01T20:23:43.253Z,16.40
2019-05-01T20:26:13.054Z,16.40
2019-05-01T20:28:42.785Z,16.30
2019-05-01T20:31:17.721Z,16.20
2019-05-01T20:33:47.934Z,16.20
2019-05-01T20:36:17.508Z,16.10
2019-05-01T20:38:48.639Z,16.10
2019-05-01T20:41:18.686Z,16.10
2019-05-01T20:43:48.615Z,16.00
2019-05-01T20:46:21.449Z,15.90
2019-05-01T20:48:49.586Z,15.90
2019-05-01T20:51:20.284Z,15.80
2019-05-01T20:53:51.037Z,15.80
2019-05-01T20:56:39.670Z,15.70
2019-05-01T20:59:10.515Z,15.60
2019-05-01T21:01:39.464Z,15.60
2019-05-01T21:04:34.732Z,15.50
2019-05-01T21:07:29.786Z,15.50
2019-05-01T21:10:23.575Z,15.40
2019-05-01T21:12:43.663Z,15.40
2019-05-01T21:15:13.430Z,15.50
2019-05-01T21:17:49.426Z,15.50
2019-05-01T21:20:19.445Z,15.40
2019-05-01T21:22:49.123Z,15.30
2019-05-01T21:25:18.882Z,15.30
2019-05-01T21:27:50.154Z,15.30
2019-05-01T21:30:20.478Z,15.20
2019-05-01T21:32:50.292Z,15.10
2019-05-01T21:35:19.903Z,15.10
2019-05-01T21:37:49.571Z,15.00
2019-05-01T21:40:20.207Z,15.00
2019-05-01T21:42:54.335Z,14.90
2019-05-01T21:45:22.877Z,15.00
2019-05-01T21:47:52.850Z,14.90
2019-05-01T21:50:26.294Z,14.80
2019-05-01T21:52:53.953Z,14.80
2019-05-01T21:55:25.621Z,14.80
2019-05-01T21:57:56.530Z,14.80
2019-05-01T22:00:28.309Z,14.70
2019-05-01T22:03:00.575Z,14.70
2019-05-01T22:05:30.290Z,14.60
2019-05-01T22:08:03.700Z,14.50
2019-05-01T22:10:32.360Z,14.40
2019-05-01T22:13:02.004Z,14.40
2019-05-01T22:15:37.326Z,14.40
2019-05-01T22:18:28.993Z,14.30
2019-05-01T22:21:20.403Z,14.20
2019-05-01T22:24:21.172Z,14.10
2019-05-01T22:26:58.061Z,14.10
2019-05-01T22:29:32.350Z,14.00
2019-05-01T22:32:09.043Z,14.00
2019-05-01T22:34:45.410Z,14.10
2019-05-01T22:37:15.119Z,14.00
2019-05-01T22:39:47.328Z,13.90
2019-05-01T22:42:16.893Z,13.80
2019-05-01T22:44:46.623Z,13.70
2019-05-01T22:47:16.386Z,13.70
2019-05-01T22:49:45.977Z,13.70
2019-05-01T22:52:15.724Z,13.60
2019-05-01T22:54:48.916Z,13.60
2019-05-01T22:57:18.266Z,13.50
2019-05-01T22:59:48.165Z,13.40
2019-05-01T23:02:28.354Z,13.30
2019-05-01T23:04:59.639Z,13.10
2019-05-01T23:07:29.277Z,13.00
2019-05-01T23:09:59.369Z,13.10
2019-05-01T23:12:32.295Z,12.90
2019-05-01T23:15:03.407Z,12.80
2019-05-01T23:17:40.813Z,12.80
2019-05-01T23:20:13.148Z,12.80
2019-05-01T23:22:42.823Z,12.80
2019-05-01T23:25:14.475Z,12.70
2019-05-01T23:27:44.087Z,12.60
2019-05-01T23:30:15.719Z,12.60
2019-05-01T23:32:45.307Z,12.50
2019-05-01T23:35:14.987Z,12.50
2019-05-01T23:37:44.563Z,12.40
2019-05-01T23:40:15.682Z,12.30
2019-05-01T23:42:52.210Z,12.30
2019-05-01T23:45:16.815Z,12.30
2019-05-01T23:47:47.527Z,12.20
2019-05-01T23:50:18.891Z,12.20
2019-05-01T23:52:48.543Z,12.20
2019-05-01T23:55:18.136Z,12.10
2019-05-01T23:57:48.747Z,12.00
